• Join FlightAware (Why Join?)
  • Login
  • US Flag 
09:21AM EDT


 

Airport Tracker/Info


-or-


 

Live Flight TrackerFlight Track Log ✈ CSN6808 ✈ 21-Aug-2013 ✈ ZWSH / KHG - ZWWW / URC

Flight Track Log - Related Links

Times and Time Zones

All times are in EDT time to prevent confusion due to time zone crossing. See the CSN6808 flight status page for this flight to view local times or setup timezone preferences in your user account.

Time Position Orientation Groundspeed Altitude Reporting Facility
EDT Latitude Longitude Course Direction KTS MPH feet Rate Location/Type
09:52AM 39.6235 76.1959 59° Northeast  Level Estimated
09:53AM 39.7035 76.3715 59° Northeast  Level Estimated
09:54AM 39.7833 76.5476 59° Northeast  Level Estimated
09:55AM 39.8628 76.7241 60° Northeast  Level Estimated
09:56AM 39.9420 76.9010 60° Northeast  Level Estimated
09:57AM 40.0210 77.0783 60° Northeast  Level Estimated
09:58AM 40.0997 77.2560 60° Northeast  Level Estimated
09:59AM 40.1781 77.4342 60° Northeast  Level Estimated
10:00AM 40.2562 77.6127 60° Northeast  Level Estimated
10:01AM 40.3341 77.7917 60° Northeast  Level Estimated
10:02AM 40.4117 77.9710 60° Northeast  Level Estimated
10:03AM 40.4890 78.1508 60° Northeast  Level Estimated
10:04AM 40.5660 78.3310 61° Northeast  Level Estimated
10:05AM 40.6427 78.5116 61° Northeast  Level Estimated
10:06AM 40.7192 78.6926 61° Northeast  Level Estimated
10:07AM 40.7954 78.8741 61° Northeast  Level Estimated
10:08AM 40.8713 79.0559 61° Northeast  Level Estimated
10:09AM 40.9469 79.2382 61° Northeast  Level Estimated
10:10AM 41.0222 79.4209 61° Northeast  Level Estimated
10:11AM 41.0973 79.6040 61° Northeast  Level Estimated
10:12AM 41.1720 79.7875 62° Northeast  Level Estimated
10:13AM 41.2465 79.9714 62° Northeast  Level Estimated
10:14AM 41.3206 80.1558 62° Northeast  Level Estimated
10:15AM 41.3945 80.3406 62° Northeast  Level Estimated
10:16AM 41.4681 80.5258 62° Northeast  Level Estimated
10:17AM 41.5413 80.7114 62° Northeast  Level Estimated
10:18AM 41.6143 80.8974 62° Northeast  Level Estimated
10:19AM 41.6870 81.0839 62° Northeast  Level Estimated
10:20AM 41.7593 81.2708 63° Northeast  Level Estimated
10:21AM 41.8314 81.4581 63° Northeast  Level Estimated
10:22AM 41.9032 81.6458 63° Northeast  Level Estimated
10:23AM 41.9746 81.8339 63° Northeast  Level Estimated
10:24AM 42.0458 82.0225 63° Northeast  Level Estimated
10:25AM 42.1166 82.2115 63° Northeast  Level Estimated
10:26AM 42.1871 82.4009 63° Northeast  Level Estimated
10:27AM 42.2574 82.5907 63° Northeast  Level Estimated
10:28AM 42.3273 82.7810 64° Northeast  Level Estimated
10:29AM 42.3968 82.9717 64° Northeast  Level Estimated
10:30AM 42.4661 83.1628 64° Northeast  Level Estimated
10:31AM 42.5351 83.3543 64° Northeast  Level Estimated
10:32AM 42.6037 83.5462 64° Northeast  Level Estimated
10:33AM 42.6720 83.7386 64° Northeast  Level Estimated
10:34AM 42.7400 83.9314 64° Northeast  Level Estimated
10:35AM 42.8077 84.1246 64° Northeast  Level Estimated
10:36AM 42.8750 84.3182 65° Northeast  Level Estimated
10:37AM 42.9420 84.5123 65° Northeast  Level Estimated
10:38AM 43.0087 84.7068 65° Northeast  Level Estimated
10:39AM 43.0750 84.9017 65° Northeast  Level Estimated
10:40AM 43.1410 85.0970 65° Northeast  Level Estimated
10:41AM 43.2067 85.2927 65° Northeast  Level Estimated
10:42AM 43.2721 85.4889 65° Northeast  Level Estimated
10:43AM 43.3371 85.6855 65° Northeast  Level Estimated
10:44AM 43.4018 85.8825 66° East  Level Estimated
10:45AM 43.4661 86.0799 66° East  Level Estimated
10:46AM 43.5301 86.2777 66° East  Level Estimated
10:47AM 43.5938 86.4760 66° East  Level Estimated
10:48AM 43.6571 86.6747 66° East  Level Estimated
10:49AM 43.7201 86.8738 66° East  Level Estimated
10:50AM 43.7827 87.0733 66° East  Level Estimated
10:51AM 43.8450 87.2732 67° East  Level Estimated
10:52AM 43.9069 87.4736 67° East  Level Estimated
10:53AM 43.9071 87.4742 67° East  Level Estimated
10:54AM 43.9071 87.4742 144° Southeast  Level Estimated
10:55AM 43.9071 87.4742 144° Southeast  Level Estimated
10:56AM 43.9071 87.4742 144° Southeast  Level Estimated
10:57AM 43.9071 87.4742 144° Southeast  Level Estimated
10:58AM 43.9071 87.4742 144° Southeast  Level Estimated
10:59AM 43.9071 87.4742 144° Southeast  Level Estimated
11:00AM 43.9071 87.4742 144° Southeast  Level Estimated
11:01AM 43.9071 87.4742 144° Southeast  Level Estimated
11:02AM 43.9071 87.4742 144° Southeast  Level Estimated
11:03AM 43.9071 87.4742 144° Southeast  Level Estimated
11:04AM 43.9071 87.4742 144° Southeast  Level Estimated
11:05AM 43.9071 87.4742 144° Southeast  Level Estimated
11:06AM 43.9071 87.4742 144° Southeast  Level Estimated
11:07AM 43.9071 87.4742 144° Southeast  Level Estimated
11:08AM 43.9071 87.4742 144° Southeast  Level Estimated